METAR Data
IDs: Format: Raw Decoded Include TAF

Data at: 0148 UTC 24 Sep 2018

KGPI 240055Z 24006KT 10SM CLR 14/05 A2996 RMK AO2 SLP153 T01440050
KGPI 232355Z 14008G17KT 10SM SCT050 SCT120 13/08 A2995 RMK AO2 SLP152 60002 T01330083 10144 20094 56001
KGPI 232309Z 21006KT 10SM CLR 13/07 A2995 RMK AO2 T01330067
KGPI 232255Z 20009KT 160V240 10SM VCTS FEW047 FEW070 13/09 A2995 RMK AO2 RAB09E35 SLP150 P0000 T01330089
KGPI 232155Z 10005KT 10SM FEW033 BKN075 14/07 A2996 RMK AO2 RAE2056 SLP150 P0000 T01390072
KGPI 232055Z 14009KT 10SM -RA SCT047 BKN060 BKN075 13/09 A2994 RMK AO2 RAB06E17B44 SLP141 P0001 60002 T01330094 58013
KGPI 231955Z 16007KT 10SM OVC055 13/09 A2996 RMK AO2 RAB11E26 SLP149 P0000 T01330094
KGPI 231855Z 21004KT 10SM BKN048 OVC055 11/09 A2998 RMK AO2 RAE03B33E55 SLP157 P0001 T01060089
KGPI 231755Z 00000KT 10SM -RA OVC049 09/09 A2998 RMK AO2 RAB27 SLP159 P0000 60000 T00940089 10094 20017 51005
KGPI 231655Z 00000KT 10SM OVC042 08/08 A2998 RMK AO2 SLP159 T00830078
KGPI 231555Z 00000KT 10SM BKN044 OVC055 06/06 A2997 RMK AO2 SLP157 T00610061
KGPI 231535Z 24003KT 10SM SCT002 BKN046 OVC055 06/06 A2997 RMK AO2 T00560056
KGPI 231519Z 20003KT 10SM BKN002 OVC055 05/05 A2997 RMK AO2 T00500050
KGPI 231455Z 10004KT 10SM FEW002 OVC050 04/04 A2996 RMK AO2 VIS 1/2 NE SLP156 T00440044 53006
KGPI 231423Z 00000KT 3SM BR SCT001 OVC048 03/03 A2996 RMK AO2 T00330033
KGPI 231417Z 20003KT 1/2SM FG BKN001 OVC050 03/03 A2996 RMK AO2 VIS 1/4V1 3/4 T00280028
KGPI 231355Z 00000KT 1/4SM FG VV001 02/02 A2995 RMK AO2 SLP153 T00170017
KGPI 231304Z AUTO 00000KT 1/4SM FG VV001 02/02 A2994 RMK AO2 T00220022
KGPI 231255Z AUTO 00000KT 1/2SM FG VV001 02/02 A2994 RMK AO2 SLP147 T00220022
KGPI 231247Z AUTO 00000KT 3/4SM BR VV001 02/02 A2994 RMK AO2 T00170017
KGPI 231236Z AUTO 02003KT 1/4SM FG VV001 02/02 A2994 RMK AO2 T00170017
KGPI 231214Z AUTO 00000KT 3/4SM BR VV001 02/02 A2994 RMK AO2 T00220022
KGPI 231210Z AUTO 00000KT 1 1/4SM BR SCT001 02/02 A2994 RMK AO2 T00220022
KGPI 231155Z AUTO 01004KT 1/2SM FG VV001 02/02 A2995 RMK AO2 SLP150 70026 T00170017 10083 20017 53001
KGPI 231141Z AUTO 03003KT 3/4SM BR VV001 02/02 A2995 RMK AO2 T00220022
KGPI 231139Z AUTO 05004KT 1 3/4SM BR SCT001 02/02 A2995 RMK AO2 VIS 1/2 NE T00220022
KGPI 231127Z AUTO 00000KT 6SM BR FEW001 03/03 A2994 RMK AO2 VIS 1/2 NE T00330033
KGPI 231118Z AUTO 29003KT 2SM BR FEW001 03/03 A2995 RMK AO2 VIS 1/2 NE T00330033
KGPI 231115Z AUTO 30004KT 1 1/4SM BR FEW001 03/03 A2994 RMK AO2 VIS 1/2 NE T00280028
KGPI 231055Z AUTO 00000KT 1/2SM FG VV001 03/03 A2994 RMK AO2 SLP147 T00280028
KGPI 231046Z AUTO 00000KT 3/4SM BR FEW001 SCT100 03/03 A2994 RMK AO2 T00330033
KGPI 231042Z AUTO 00000KT 1 3/4SM BR FEW001 SCT100 04/04 A2995 RMK AO2 VIS 3/4 NE T00440044
KGPI 231034Z AUTO 32003KT 3SM BR FEW001 BKN100 04/04 A2994 RMK AO2 VIS 2 NE T00390039
KGPI 231024Z AUTO 00000KT 1 1/2SM BR FEW001 OVC100 04/04 A2994 RMK AO2 VIS 1/2V3 T00440044
KGPI 231018Z AUTO 01003KT 1/2SM FG FEW001 BKN100 05/04 A2994 RMK AO2 T00500044
KGPI 231009Z AUTO 00000KT 3/4SM BR BKN100 04/04 A2994 RMK AO2 T00440044
KGPI 231003Z AUTO 00000KT 1 3/4SM BR SCT100 05/05 A2994 RMK AO2 VIS 3/4V5 T00500050
KGPI 230955Z AUTO 00000KT 7SM CLR 04/04 A2994 RMK AO2 SLP144 T00440044
KGPI 230943Z AUTO 34003KT 4SM BR CLR 06/06 A2994 RMK AO2 T00560056
KGPI 230941Z AUTO 34004KT 1 3/4SM BR CLR 05/05 A2994 RMK AO2 T00500050
KGPI 230932Z AUTO 02006KT 1SM BR VV001 04/04 A2994 RMK AO2 T00390039
KGPI 230930Z AUTO 01006KT 1 3/4SM BR CLR 04/04 A2994 RMK AO2 T00390039
KGPI 230855Z AUTO 00000KT 10SM SCT095 07/07 A2994 RMK AO2 SLP140 T00720072 58001
KGPI 230819Z AUTO 20004KT 3SM BR FEW001 BKN100 06/06 A2994 RMK AO2 VIS 1/2 NE T00610061
KGPI 230801Z AUTO 01003KT 1 1/2SM BR SCT001 BKN100 07/07 A2994 RMK AO2 VIS 3/4 NE T00670067
KGPI 230755Z AUTO 01005KT 3/4SM BR SCT001 BKN100 07/07 A2994 RMK AO2 SLP142 T00670067
KGPI 230745Z AUTO 06005KT 1/2SM FG FEW001 SCT100 07/07 A2994 RMK AO2 T00720067
KGPI 230742Z AUTO VRB03KT 1SM BR VV001 06/06 A2994 RMK AO2 T00610061
KGPI 230659Z AUTO 00000KT 3SM BR FEW001 07/07 A2995 RMK AO2 VIS 1/2 NE T00670067
KGPI 230657Z AUTO 00000KT 1 1/2SM BR FEW001 07/07 A2995 RMK AO2 VIS 1/2 NE T00670067
KGPI 230655Z AUTO 21003KT 1SM BR VV001 07/07 A2995 RMK AO2 VIS 1/2V5 SLP144 T00670067 401720067
KGPI 230651Z AUTO 18004KT 3/4SM BR VV001 07/07 A2995 RMK AO2
KGPI 230642Z AUTO 00000KT 1 1/2SM BR FEW001 SCT065 07/07 A2995 RMK AO2 VIS 1/2 NE T00720072
KGPI 230630Z AUTO 00000KT 3/4SM BR SCT001 BKN065 07/07 A2995 RMK AO2 VIS 1/4V5 T00670067
KGPI 230623Z AUTO 00000KT 1 3/4SM BR FEW001 SCT065 08/08 A2996 RMK AO2 VIS 1/2 NE T00780078
KGPI 230616Z AUTO 00000KT 3/4SM BR FEW001 SCT060 07/07 A2996 RMK AO2 T00720072
KGPI 230611Z AUTO 00000KT 1SM BR VV001 07/07 A2995 RMK AO2 T00720072
KGPI 230608Z AUTO 00000KT 1 3/4SM BR FEW001 08/08 A2995 RMK AO2 T00780078
KGPI 230555Z AUTO 00000KT 2 1/2SM BR FEW065 08/08 A2996 RMK AO2 VIS 1V5 SLP147 60003 T00780078 10144 20078 53001
KGPI 230549Z AUTO 12003KT 2 1/2SM BR FEW065 08/08 A2996 RMK AO2
KGPI 230545Z 15003KT 1SM BR FEW001 FEW065 08/08 A2995 RMK AO2 T00830083
KGPI 230535Z 13003KT 1 1/2SM BR SCT065 08/08 A2996 RMK AO2 T00830083
KGPI 230524Z 00000KT 1/2SM FG FEW001 FEW070 08/08 A2996 RMK AO2 T00780078
KGPI 230519Z 00000KT 1SM BR VV001 08/08 A2996 RMK AO2 T00830083
KGPI 230517Z 00000KT 1 1/2SM BR CLR 08/08 A2995 RMK AO2 T00830083
KGPI 230455Z 00000KT 10SM CLR 08/08 A2995 RMK AO2 SLP146 T00830083
KGPI 230355Z 00000KT 10SM FEW070 BKN085 10/09 A2995 RMK AO2 SLP146 T01000094
KGPI 230255Z 02005KT 10SM FEW070 11/11 A2995 RMK AO2 SLP147 60003 T01060106 55000
KGPI 230155Z 00000KT 10SM SCT070 11/11 A2995 RMK AO2 SLP147 T01060106
KGPI 230055Z 00000KT 10SM FEW050 FEW065 SCT095 12/11 A2995 RMK AO2 RAB11E48 SLP146 P0003 T01220106
KGPI 230039Z 00000KT 6SM VCTS -RA BR SCT042 BKN060 OVC090 13/11 A2996 RMK AO2 RAB11 P0003 T01280106
KGPI 222355Z 19003KT 10SM BKN060 BKN075 BKN120 14/12 A2994 RMK AO2 RAE22 SLP141 P0001 60023 T01390117 10172 20133 53002
KGPI 222255Z 20006KT 9SM -RA SCT049 BKN065 OVC090 14/11 A2994 RMK AO2 RAE2157B49 SLP139 P0000 T01390106
KGPI 222155Z 14008KT 10SM -RA FEW037 SCT050 BKN060 14/12 A2993 RMK AO2 RAB01 SLP137 P0022 T01390117
KGPI 222114Z 12007KT 10SM -RA BKN055 OVC090 14/11 A2994 RMK AO2 RAB01 P0009 T01390106
KGPI 222106Z 15006KT 1 3/4SM +RA OVC055 14/10 A2994 RMK AO2 RAB01 P0006 T01390100
KGPI 222055Z 17007KT 10SM BKN060 BKN080 16/09 A2993 RMK AO2 SLP135 60000 T01610089 51003
KGPI 221955Z 06004KT 10SM BKN060 BKN075 OVC090 15/11 A2993 RMK AO2 RAB1856E09B39E55 SLP133 P0000 T01500106
KGPI 221855Z 00000KT 10SM OVC070 14/09 A2994 RMK AO2 RAB1757E46 SLP137 P0000 T01390094
KGPI 221755Z 35004KT 10SM OVC070 14/09 A2992 RMK AO2 SLP132 T01390089 10139 20067 53010
KGPI 221655Z 00000KT 10SM OVC080 12/08 A2990 RMK AO2 SLP126 T01170083
KGPI 221555Z 00000KT 10SM OVC080 11/08 A2990 RMK AO2 SLP125 T01110078
KGPI 221455Z 00000KT 10SM BKN100 09/07 A2989 RMK AO2 SLP123 T00940072 51008
KGPI 221355Z 00000KT 10SM OVC110 08/07 A2989 RMK AO2 SLP119 T00780072